sensor_id;sensor_type;location;lat;lon;timestamp;pressure;altitude;pressure_sealevel;temperature;humidity
21096;BME280;10706;49.036;12.112;2023-05-09T00:01:33;98159.22;;;12.12;78.08
21096;BME280;10706;49.036;12.112;2023-05-09T00:04:00;98155.84;;;12.16;77.74
21096;BME280;10706;49.036;12.112;2023-05-09T00:06:26;98148.97;;;12.09;78.22
21096;BME280;10706;49.036;12.112;2023-05-09T00:08:55;98147.22;;;12.02;78.53
21096;BME280;10706;49.036;12.112;2023-05-09T00:11:21;98150.03;;;12.08;79.29
21096;BME280;10706;49.036;12.112;2023-05-09T00:13:48;98146.28;;;12.09;78.85
21096;BME280;10706;49.036;12.112;2023-05-09T00:16:16;98150.81;;;12.08;78.75
21096;BME280;10706;49.036;12.112;2023-05-09T00:18:42;98150.47;;;12.04;78.91
21096;BME280;10706;49.036;12.112;2023-05-09T00:21:09;98152.59;;;12.02;78.86
21096;BME280;10706;49.036;12.112;2023-05-09T00:23:36;98148.53;;;12.00;79.24
21096;BME280;10706;49.036;12.112;2023-05-09T00:26:02;98144.44;;;11.97;78.74
21096;BME280;10706;49.036;12.112;2023-05-09T00:28:28;98145.03;;;11.99;78.79
21096;BME280;10706;49.036;12.112;2023-05-09T00:30:53;98136.19;;;11.99;78.51
21096;BME280;10706;49.036;12.112;2023-05-09T00:33:19;98140.16;;;11.96;78.65
21096;BME280;10706;49.036;12.112;2023-05-09T00:35:46;98136.66;;;11.96;78.74
21096;BME280;10706;49.036;12.112;2023-05-09T00:38:12;98128.63;;;11.96;78.63
21096;BME280;10706;49.036;12.112;2023-05-09T00:40:38;98134.22;;;11.94;78.36
21096;BME280;10706;49.036;12.112;2023-05-09T00:43:03;98133.63;;;11.92;78.48
21096;BME280;10706;49.036;12.112;2023-05-09T00:45:29;98126.41;;;11.93;78.85
21096;BME280;10706;49.036;12.112;2023-05-09T00:47:56;98118.63;;;11.91;77.38
21096;BME280;10706;49.036;12.112;2023-05-09T00:50:23;98118.00;;;11.89;78.79
21096;BME280;10706;49.036;12.112;2023-05-09T00:52:50;98118.50;;;11.98;77.19
21096;BME280;10706;49.036;12.112;2023-05-09T00:55:17;98111.50;;;11.97;77.41
21096;BME280;10706;49.036;12.112;2023-05-09T00:57:43;98108.72;;;11.92;77.73
21096;BME280;10706;49.036;12.112;2023-05-09T01:00:10;98112.81;;;11.94;78.41
21096;BME280;10706;49.036;12.112;2023-05-09T01:02:48;98110.34;;;11.81;78.79
21096;BME280;10706;49.036;12.112;2023-05-09T01:05:15;98113.81;;;11.81;78.42
21096;BME280;10706;49.036;12.112;2023-05-09T01:08:03;98120.22;;;11.80;78.53
21096;BME280;10706;49.036;12.112;2023-05-09T01:10:59;98119.63;;;11.78;78.19
21096;BME280;10706;49.036;12.112;2023-05-09T01:13:48;98114.19;;;11.73;78.36
21096;BME280;10706;49.036;12.112;2023-05-09T01:16:37;98114.06;;;11.68;77.97
21096;BME280;10706;49.036;12.112;2023-05-09T01:19:25;98111.84;;;11.65;78.68
21096;BME280;10706;49.036;12.112;2023-05-09T01:21:52;98113.84;;;11.70;78.98
21096;BME280;10706;49.036;12.112;2023-05-09T01:24:44;98117.19;;;11.65;79.39
21096;BME280;10706;49.036;12.112;2023-05-09T01:30:28;98105.34;;;11.61;78.91
21096;BME280;10706;49.036;12.112;2023-05-09T01:32:59;98098.84;;;11.57;79.71
21096;BME280;10706;49.036;12.112;2023-05-09T01:35:31;98099.28;;;11.54;80.59
21096;BME280;10706;49.036;12.112;2023-05-09T01:37:58;98095.34;;;11.56;80.46
21096;BME280;10706;49.036;12.112;2023-05-09T01:40:26;98091.50;;;11.52;80.25
21096;BME280;10706;49.036;12.112;2023-05-09T01:42:58;98091.75;;;11.51;80.15
21096;BME280;10706;49.036;12.112;2023-05-09T01:45:26;98090.47;;;11.53;79.77
21096;BME280;10706;49.036;12.112;2023-05-09T01:47:53;98088.81;;;11.52;80.39
21096;BME280;10706;49.036;12.112;2023-05-09T01:50:21;98084.88;;;11.55;80.31
21096;BME280;10706;49.036;12.112;2023-05-09T01:52:51;98084.97;;;11.60;80.89
21096;BME280;10706;49.036;12.112;2023-05-09T01:55:18;98084.28;;;11.64;79.30
21096;BME280;10706;49.036;12.112;2023-05-09T01:57:46;98089.88;;;11.63;79.18
21096;BME280;10706;49.036;12.112;2023-05-09T02:00:14;98085.22;;;11.58;79.33
21096;BME280;10706;49.036;12.112;2023-05-09T02:02:41;98083.25;;;11.54;79.54
21096;BME280;10706;49.036;12.112;2023-05-09T02:05:09;98077.53;;;11.50;79.93
21096;BME280;10706;49.036;12.112;2023-05-09T02:07:36;98079.28;;;11.44;80.51
21096;BME280;10706;49.036;12.112;2023-05-09T02:10:02;98075.22;;;11.42;79.52
21096;BME280;10706;49.036;12.112;2023-05-09T02:12:29;98076.63;;;11.33;80.15
21096;BME280;10706;49.036;12.112;2023-05-09T02:14:55;98069.88;;;11.30;80.08
21096;BME280;10706;49.036;12.112;2023-05-09T02:17:21;98069.03;;;11.29;80.23
21096;BME280;10706;49.036;12.112;2023-05-09T02:19:46;98076.50;;;11.27;80.33
21096;BME280;10706;49.036;12.112;2023-05-09T02:22:12;98075.56;;;11.22;80.17
21096;BME280;10706;49.036;12.112;2023-05-09T02:24:39;98079.28;;;11.21;80.64
21096;BME280;10706;49.036;12.112;2023-05-09T02:27:06;98077.88;;;11.18;80.69
21096;BME280;10706;49.036;12.112;2023-05-09T02:29:45;98079.50;;;11.19;80.04
21096;BME280;10706;49.036;12.112;2023-05-09T02:32:16;98076.25;;;11.17;80.33
21096;BME280;10706;49.036;12.112;2023-05-09T02:34:44;98068.69;;;11.14;80.50
21096;BME280;10706;49.036;12.112;2023-05-09T02:37:10;98075.53;;;11.10;80.56
21096;BME280;10706;49.036;12.112;2023-05-09T02:39:37;98071.94;;;11.04;80.67
21096;BME280;10706;49.036;12.112;2023-05-09T02:42:12;98064.13;;;11.03;80.83
21096;BME280;10706;49.036;12.112;2023-05-09T02:44:39;98067.63;;;11.03;80.35
21096;BME280;10706;49.036;12.112;2023-05-09T02:47:06;98067.63;;;11.03;80.24
21096;BME280;10706;49.036;12.112;2023-05-09T02:49:32;98071.22;;;11.09;80.13
21096;BME280;10706;49.036;12.112;2023-05-09T02:51:59;98069.47;;;11.03;80.25
21096;BME280;10706;49.036;12.112;2023-05-09T02:54:25;98064.00;;;10.98;80.74
21096;BME280;10706;49.036;12.112;2023-05-09T02:56:50;98062.25;;;10.92;81.56
21096;BME280;10706;49.036;12.112;2023-05-09T02:59:17;98063.31;;;10.91;80.58
21096;BME280;10706;49.036;12.112;2023-05-09T03:01:44;98061.22;;;10.93;81.70
21096;BME280;10706;49.036;12.112;2023-05-09T03:04:10;98057.72;;;10.92;80.59
21096;BME280;10706;49.036;12.112;2023-05-09T03:06:36;98055.31;;;10.91;80.85
21096;BME280;10706;49.036;12.112;2023-05-09T03:09:02;98061.53;;;10.84;80.20
21096;BME280;10706;49.036;12.112;2023-05-09T03:11:28;98061.09;;;10.87;79.28
21096;BME280;10706;49.036;12.112;2023-05-09T03:13:55;98057.38;;;10.88;80.08
21096;BME280;10706;49.036;12.112;2023-05-09T03:16:21;98048.78;;;10.86;78.72
21096;BME280;10706;49.036;12.112;2023-05-09T03:18:47;98056.19;;;10.84;78.82
21096;BME280;10706;49.036;12.112;2023-05-09T03:21:12;98047.59;;;10.82;78.97
21096;BME280;10706;49.036;12.112;2023-05-09T03:23:38;98037.97;;;10.81;78.63
21096;BME280;10706;49.036;12.112;2023-05-09T03:26:04;98044.13;;;10.82;78.27
21096;BME280;10706;49.036;12.112;2023-05-09T03:28:30;98046.22;;;10.92;77.86
21096;BME280;10706;49.036;12.112;2023-05-09T03:30:56;98050.84;;;10.84;77.86
21096;BME280;10706;49.036;12.112;2023-05-09T03:33:21;98044.72;;;10.84;78.59
21096;BME280;10706;49.036;12.112;2023-05-09T03:35:47;98044.13;;;10.82;79.00
21096;BME280;10706;49.036;12.112;2023-05-09T03:38:13;98044.34;;;10.80;79.31
21096;BME280;10706;49.036;12.112;2023-05-09T03:40:38;98047.03;;;10.80;79.48
21096;BME280;10706;49.036;12.112;2023-05-09T03:43:04;98050.13;;;10.77;79.63
21096;BME280;10706;49.036;12.112;2023-05-09T03:45:30;98048.88;;;10.80;79.60
21096;BME280;10706;49.036;12.112;2023-05-09T03:47:55;98047.81;;;10.81;78.32
21096;BME280;10706;49.036;12.112;2023-05-09T03:50:21;98045.50;;;10.73;79.36
21096;BME280;10706;49.036;12.112;2023-05-09T03:52:47;98048.16;;;10.73;80.39
21096;BME280;10706;49.036;12.112;2023-05-09T03:55:13;98039.78;;;10.69;80.62
21096;BME280;10706;49.036;12.112;2023-05-09T03:57:38;98045.00;;;10.64;80.57
21096;BME280;10706;49.036;12.112;2023-05-09T04:00:05;98041.88;;;10.67;81.96
21096;BME280;10706;49.036;12.112;2023-05-09T04:02:34;98039.44;;;10.65;82.14
21096;BME280;10706;49.036;12.112;2023-05-09T04:05:00;98035.59;;;10.61;81.44
21096;BME280;10706;49.036;12.112;2023-05-09T04:07:26;98034.09;;;10.65;81.65
21096;BME280;10706;49.036;12.112;2023-05-09T04:09:54;98038.97;;;10.57;82.17
21096;BME280;10706;49.036;12.112;2023-05-09T04:12:20;98036.88;;;10.59;82.21
21096;BME280;10706;49.036;12.112;2023-05-09T04:14:46;98037.53;;;10.54;82.03
21096;BME280;10706;49.036;12.112;2023-05-09T04:17:12;98026.63;;;10.56;81.65
21096;BME280;10706;49.036;12.112;2023-05-09T04:19:38;98031.41;;;10.65;82.66
21096;BME280;10706;49.036;12.112;2023-05-09T04:22:03;98034.31;;;10.64;81.86
21096;BME280;10706;49.036;12.112;2023-05-09T04:24:29;98034.44;;;10.69;80.72
21096;BME280;10706;49.036;12.112;2023-05-09T04:26:56;98036.69;;;10.72;80.23
21096;BME280;10706;49.036;12.112;2023-05-09T04:29:22;98030.63;;;10.77;80.86
21096;BME280;10706;49.036;12.112;2023-05-09T04:31:47;98031.34;;;10.84;80.32
21096;BME280;10706;49.036;12.112;2023-05-09T04:34:13;98032.66;;;10.93;81.27
21096;BME280;10706;49.036;12.112;2023-05-09T04:36:39;98037.66;;;11.01;80.05
21096;BME280;10706;49.036;12.112;2023-05-09T04:39:04;98026.16;;;11.13;80.33
21096;BME280;10706;49.036;12.112;2023-05-09T04:41:30;98026.28;;;11.29;79.67
21096;BME280;10706;49.036;12.112;2023-05-09T04:43:57;98032.81;;;11.34;78.76
21096;BME280;10706;49.036;12.112;2023-05-09T04:46:22;98038.38;;;11.44;78.58
21096;BME280;10706;49.036;12.112;2023-05-09T04:48:48;98036.28;;;11.46;79.48
21096;BME280;10706;49.036;12.112;2023-05-09T04:51:14;98035.91;;;11.54;77.42
21096;BME280;10706;49.036;12.112;2023-05-09T04:53:40;98042.44;;;11.58;75.82
21096;BME280;10706;49.036;12.112;2023-05-09T04:56:06;98045.91;;;11.82;77.00
21096;BME280;10706;49.036;12.112;2023-05-09T04:58:31;98038.19;;;11.86;74.42
21096;BME280;10706;49.036;12.112;2023-05-09T05:00:58;98038.78;;;12.00;74.88
21096;BME280;10706;49.036;12.112;2023-05-09T05:03:24;98038.63;;;12.18;74.87
21096;BME280;10706;49.036;12.112;2023-05-09T05:05:50;98029.75;;;12.30;74.95
21096;BME280;10706;49.036;12.112;2023-05-09T05:08:15;98037.09;;;12.22;73.15
21096;BME280;10706;49.036;12.112;2023-05-09T05:10:41;98022.66;;;12.52;73.94
21096;BME280;10706;49.036;12.112;2023-05-09T05:13:07;98027.22;;;12.86;73.10
21096;BME280;10706;49.036;12.112;2023-05-09T05:15:33;98025.28;;;12.81;71.23
21096;BME280;10706;49.036;12.112;2023-05-09T05:17:58;98022.13;;;12.84;71.05
21096;BME280;10706;49.036;12.112;2023-05-09T05:20:24;98024.50;;;12.80;70.84
21096;BME280;10706;49.036;12.112;2023-05-09T05:22:50;98025.38;;;13.20;72.36
21096;BME280;10706;49.036;12.112;2023-05-09T05:25:16;98033.19;;;12.88;70.90
21096;BME280;10706;49.036;12.112;2023-05-09T05:27:42;98030.97;;;13.18;70.04
21096;BME280;10706;49.036;12.112;2023-05-09T05:30:09;98030.91;;;13.47;69.60
21096;BME280;10706;49.036;12.112;2023-05-09T05:32:35;98025.88;;;14.17;68.64
21096;BME280;10706;49.036;12.112;2023-05-09T05:35:00;98029.72;;;14.48;64.86
21096;BME280;10706;49.036;12.112;2023-05-09T05:37:28;98030.56;;;14.54;64.50
21096;BME280;10706;49.036;12.112;2023-05-09T05:39:53;98034.53;;;14.68;64.26
21096;BME280;10706;49.036;12.112;2023-05-09T05:42:19;98028.97;;;14.80;62.02
21096;BME280;10706;49.036;12.112;2023-05-09T05:44:45;98030.88;;;14.80;62.34
21096;BME280;10706;49.036;12.112;2023-05-09T05:47:10;98028.19;;;14.30;62.01
21096;BME280;10706;49.036;12.112;2023-05-09T05:49:36;98035.25;;;14.36;63.10
21096;BME280;10706;49.036;12.112;2023-05-09T05:52:02;98027.13;;;14.31;62.39
21096;BME280;10706;49.036;12.112;2023-05-09T05:54:28;98020.63;;;14.27;61.49
21096;BME280;10706;49.036;12.112;2023-05-09T05:56:54;98025.31;;;14.15;59.33
21096;BME280;10706;49.036;12.112;2023-05-09T05:59:19;98023.97;;;14.12;59.19
21096;BME280;10706;49.036;12.112;2023-05-09T06:01:45;98022.03;;;14.08;61.83
21096;BME280;10706;49.036;12.112;2023-05-09T06:04:11;98021.03;;;14.14;61.07
21096;BME280;10706;49.036;12.112;2023-05-09T06:06:36;98009.72;;;14.12;60.44
21096;BME280;10706;49.036;12.112;2023-05-09T06:09:02;98007.91;;;14.17;60.26
21096;BME280;10706;49.036;12.112;2023-05-09T06:11:28;98014.47;;;14.05;60.86
21096;BME280;10706;49.036;12.112;2023-05-09T06:13:54;98013.53;;;14.16;60.92
21096;BME280;10706;49.036;12.112;2023-05-09T06:16:19;98009.16;;;14.10;61.73
21096;BME280;10706;49.036;12.112;2023-05-09T06:18:46;98015.88;;;13.85;58.68
21096;BME280;10706;49.036;12.112;2023-05-09T06:21:12;98006.91;;;14.02;58.76
21096;BME280;10706;49.036;12.112;2023-05-09T06:23:37;98011.06;;;13.87;58.64
21096;BME280;10706;49.036;12.112;2023-05-09T06:26:03;98003.47;;;13.62;58.92
21096;BME280;10706;49.036;12.112;2023-05-09T06:28:29;98008.03;;;13.61;57.22
21096;BME280;10706;49.036;12.112;2023-05-09T06:30:55;98014.03;;;13.69;58.64
21096;BME280;10706;49.036;12.112;2023-05-09T06:33:20;98007.78;;;13.63;56.75
21096;BME280;10706;49.036;12.112;2023-05-09T06:35:46;98008.56;;;13.41;55.97
21096;BME280;10706;49.036;12.112;2023-05-09T06:38:12;98004.31;;;13.29;56.80
21096;BME280;10706;49.036;12.112;2023-05-09T06:40:38;98005.81;;;13.36;58.47
21096;BME280;10706;49.036;12.112;2023-05-09T06:43:03;98002.53;;;13.34;57.46
21096;BME280;10706;49.036;12.112;2023-05-09T06:45:29;98003.94;;;13.76;60.21
21096;BME280;10706;49.036;12.112;2023-05-09T06:47:55;98010.34;;;13.75;58.57
21096;BME280;10706;49.036;12.112;2023-05-09T06:50:21;97998.19;;;13.89;59.49
21096;BME280;10706;49.036;12.112;2023-05-09T06:52:47;97996.38;;;13.95;57.64
21096;BME280;10706;49.036;12.112;2023-05-09T06:55:13;97991.88;;;14.00;58.56
21096;BME280;10706;49.036;12.112;2023-05-09T06:57:39;98000.91;;;13.94;56.53
21096;BME280;10706;49.036;12.112;2023-05-09T07:00:08;97995.38;;;14.01;55.32
21096;BME280;10706;49.036;12.112;2023-05-09T07:02:34;97999.53;;;13.70;56.33
21096;BME280;10706;49.036;12.112;2023-05-09T07:05:00;97998.69;;;13.86;55.94
21096;BME280;10706;49.036;12.112;2023-05-09T07:07:26;97996.00;;;13.86;56.14
21096;BME280;10706;49.036;12.112;2023-05-09T07:09:51;97992.56;;;13.69;55.51
21096;BME280;10706;49.036;12.112;2023-05-09T07:12:17;97980.66;;;13.82;57.22
21096;BME280;10706;49.036;12.112;2023-05-09T07:14:43;97985.47;;;13.79;55.45
21096;BME280;10706;49.036;12.112;2023-05-09T07:17:09;97976.47;;;13.91;58.46
21096;BME280;10706;49.036;12.112;2023-05-09T07:19:34;97973.34;;;13.77;57.33
21096;BME280;10706;49.036;12.112;2023-05-09T07:22:00;97967.72;;;13.56;56.01
21096;BME280;10706;49.036;12.112;2023-05-09T07:24:26;97959.97;;;13.60;57.20
21096;BME280;10706;49.036;12.112;2023-05-09T07:26:52;97968.91;;;13.88;57.59
21096;BME280;10706;49.036;12.112;2023-05-09T07:29:18;97964.81;;;14.07;57.36
21096;BME280;10706;49.036;12.112;2023-05-09T07:31:44;97956.41;;;14.26;56.69
21096;BME280;10706;49.036;12.112;2023-05-09T07:34:10;97951.25;;;14.46;57.43
21096;BME280;10706;49.036;12.112;2023-05-09T07:36:36;97961.66;;;14.65;59.28
21096;BME280;10706;49.036;12.112;2023-05-09T07:39:02;97959.88;;;14.81;56.15
21096;BME280;10706;49.036;12.112;2023-05-09T07:41:30;97953.19;;;14.83;55.95
21096;BME280;10706;49.036;12.112;2023-05-09T07:43:56;97946.59;;;15.01;55.74
21096;BME280;10706;49.036;12.112;2023-05-09T07:46:22;97942.06;;;14.69;54.67
21096;BME280;10706;49.036;12.112;2023-05-09T07:48:47;97942.91;;;14.75;56.54
21096;BME280;10706;49.036;12.112;2023-05-09T07:51:13;97947.47;;;14.74;56.30
21096;BME280;10706;49.036;12.112;2023-05-09T07:53:39;97941.13;;;14.86;55.61
21096;BME280;10706;49.036;12.112;2023-05-09T07:56:05;97940.31;;;14.85;56.10
21096;BME280;10706;49.036;12.112;2023-05-09T07:58:34;97932.72;;;14.77;54.90
21096;BME280;10706;49.036;12.112;2023-05-09T08:00:59;97929.63;;;14.95;56.21
21096;BME280;10706;49.036;12.112;2023-05-09T08:03:25;97922.97;;;15.08;54.87
21096;BME280;10706;49.036;12.112;2023-05-09T08:05:54;97923.28;;;15.12;54.71
21096;BME280;10706;49.036;12.112;2023-05-09T08:08:21;97922.22;;;15.13;54.92
21096;BME280;10706;49.036;12.112;2023-05-09T08:10:47;97918.91;;;15.01;55.22
21096;BME280;10706;49.036;12.112;2023-05-09T08:13:13;97927.91;;;15.22;54.96
21096;BME280;10706;49.036;12.112;2023-05-09T08:15:39;97920.66;;;15.27;54.59
21096;BME280;10706;49.036;12.112;2023-05-09T08:18:04;97916.13;;;15.28;53.66
21096;BME280;10706;49.036;12.112;2023-05-09T08:20:30;97915.84;;;15.29;54.40
21096;BME280;10706;49.036;12.112;2023-05-09T08:22:56;97917.78;;;15.44;53.73
21096;BME280;10706;49.036;12.112;2023-05-09T08:25:22;97903.25;;;15.40;52.01
21096;BME280;10706;49.036;12.112;2023-05-09T08:27:48;97909.50;;;15.51;54.16
21096;BME280;10706;49.036;12.112;2023-05-09T08:30:14;97900.06;;;15.53;52.68
21096;BME280;10706;49.036;12.112;2023-05-09T08:32:40;97902.47;;;15.50;51.91
21096;BME280;10706;49.036;12.112;2023-05-09T08:35:06;97891.75;;;15.55;52.08
21096;BME280;10706;49.036;12.112;2023-05-09T08:37:35;97884.81;;;15.69;51.32
21096;BME280;10706;49.036;12.112;2023-05-09T08:40:02;97882.97;;;15.75;52.08
21096;BME280;10706;49.036;12.112;2023-05-09T08:42:29;97882.94;;;15.80;52.97
21096;BME280;10706;49.036;12.112;2023-05-09T08:44:56;97879.13;;;15.71;49.85
21096;BME280;10706;49.036;12.112;2023-05-09T08:47:22;97872.19;;;15.75;51.81
21096;BME280;10706;49.036;12.112;2023-05-09T08:49:49;97867.88;;;15.79;50.70
21096;BME280;10706;49.036;12.112;2023-05-09T08:52:15;97869.28;;;15.92;52.10
21096;BME280;10706;49.036;12.112;2023-05-09T08:54:41;97865.78;;;16.07;49.86
21096;BME280;10706;49.036;12.112;2023-05-09T08:57:07;97875.22;;;15.99;51.43
21096;BME280;10706;49.036;12.112;2023-05-09T08:59:33;97868.75;;;16.21;51.35
21096;BME280;10706;49.036;12.112;2023-05-09T09:02:05;97869.84;;;16.25;49.13
21096;BME280;10706;49.036;12.112;2023-05-09T09:04:32;97871.44;;;16.31;47.41
21096;BME280;10706;49.036;12.112;2023-05-09T09:06:58;97864.47;;;16.35;47.63
21096;BME280;10706;49.036;12.112;2023-05-09T09:09:26;97868.75;;;16.31;49.64
21096;BME280;10706;49.036;12.112;2023-05-09T09:11:52;97861.47;;;16.37;48.50
21096;BME280;10706;49.036;12.112;2023-05-09T09:14:23;97857.16;;;16.25;51.05
21096;BME280;10706;49.036;12.112;2023-05-09T09:16:54;97854.47;;;16.46;50.52
21096;BME280;10706;49.036;12.112;2023-05-09T09:19:21;97845.31;;;16.52;49.26
21096;BME280;10706;49.036;12.112;2023-05-09T09:21:53;97850.16;;;16.55;49.53
21096;BME280;10706;49.036;12.112;2023-05-09T09:24:21;97841.53;;;16.63;48.15
21096;BME280;10706;49.036;12.112;2023-05-09T09:26:49;97835.34;;;16.47;47.60
21096;BME280;10706;49.036;12.112;2023-05-09T09:29:19;97838.31;;;16.56;48.55
21096;BME280;10706;49.036;12.112;2023-05-09T09:31:46;97839.38;;;16.70;49.74
21096;BME280;10706;49.036;12.112;2023-05-09T09:34:20;97828.28;;;16.77;48.01
21096;BME280;10706;49.036;12.112;2023-05-09T09:36:46;97826.94;;;16.90;48.61
21096;BME280;10706;49.036;12.112;2023-05-09T09:39:13;97826.41;;;16.88;46.39
21096;BME280;10706;49.036;12.112;2023-05-09T09:41:40;97818.81;;;17.00;45.42
21096;BME280;10706;49.036;12.112;2023-05-09T09:44:14;97820.44;;;16.96;46.17
21096;BME280;10706;49.036;12.112;2023-05-09T09:46:41;97818.00;;;17.05;45.71
21096;BME280;10706;49.036;12.112;2023-05-09T09:49:12;97811.03;;;16.88;45.62
21096;BME280;10706;49.036;12.112;2023-05-09T09:51:38;97810.75;;;16.90;47.34
21096;BME280;10706;49.036;12.112;2023-05-09T09:54:09;97800.97;;;17.09;49.35
21096;BME280;10706;49.036;12.112;2023-05-09T09:56:46;97799.88;;;17.16;47.13
21096;BME280;10706;49.036;12.112;2023-05-09T09:59:16;97797.16;;;17.21;47.22
21096;BME280;10706;49.036;12.112;2023-05-09T10:02:02;97785.28;;;17.22;47.03
21096;BME280;10706;49.036;12.112;2023-05-09T10:04:36;97790.84;;;17.41;45.76
21096;BME280;10706;49.036;12.112;2023-05-09T10:07:05;97780.91;;;17.36;42.61
21096;BME280;10706;49.036;12.112;2023-05-09T10:09:33;97775.72;;;17.45;42.59
21096;BME280;10706;49.036;12.112;2023-05-09T10:12:05;97772.72;;;17.46;42.54
21096;BME280;10706;49.036;12.112;2023-05-09T10:14:33;97765.59;;;17.66;42.85
21096;BME280;10706;49.036;12.112;2023-05-09T10:17:01;97768.75;;;17.78;40.43
21096;BME280;10706;49.036;12.112;2023-05-09T10:19:29;97767.72;;;17.69;41.40
21096;BME280;10706;49.036;12.112;2023-05-09T10:22:04;97755.25;;;17.78;43.26
21096;BME280;10706;49.036;12.112;2023-05-09T10:24:54;97748.47;;;17.86;42.35
21096;BME280;10706;49.036;12.112;2023-05-09T10:27:26;97747.84;;;17.94;40.15
21096;BME280;10706;49.036;12.112;2023-05-09T10:30:21;97747.31;;;17.92;41.08
21096;BME280;10706;49.036;12.112;2023-05-09T10:33:07;97745.22;;;18.18;40.51
21096;BME280;10706;49.036;12.112;2023-05-09T10:35:39;97737.25;;;18.32;41.17
21096;BME280;10706;49.036;12.112;2023-05-09T10:38:06;97729.84;;;18.43;41.23
21096;BME280;10706;49.036;12.112;2023-05-09T10:40:33;97716.91;;;18.64;40.90
21096;BME280;10706;49.036;12.112;2023-05-09T10:42:59;97724.84;;;18.55;37.99
21096;BME280;10706;49.036;12.112;2023-05-09T10:45:26;97715.09;;;18.54;37.81
21096;BME280;10706;49.036;12.112;2023-05-09T10:47:53;97719.03;;;18.67;38.70
21096;BME280;10706;49.036;12.112;2023-05-09T10:50:21;97712.81;;;18.67;40.94
21096;BME280;10706;49.036;12.112;2023-05-09T10:55:54;97701.47;;;18.64;41.04
21096;BME280;10706;49.036;12.112;2023-05-09T10:58:29;97694.75;;;18.86;37.78
21096;BME280;10706;49.036;12.112;2023-05-09T11:01:01;97689.44;;;18.81;37.33
21096;BME280;10706;49.036;12.112;2023-05-09T11:04:15;97686.13;;;18.84;39.59
21096;BME280;10706;49.036;12.112;2023-05-09T11:06:45;97678.50;;;18.86;39.94
21096;BME280;10706;49.036;12.112;2023-05-09T11:09:36;97676.50;;;18.97;40.06
21096;BME280;10706;49.036;12.112;2023-05-09T11:12:14;97664.34;;;18.94;40.94
21096;BME280;10706;49.036;12.112;2023-05-09T11:14:48;97664.88;;;19.15;38.86
21096;BME280;10706;49.036;12.112;2023-05-09T11:24:49;97648.88;;;19.52;41.12
21096;BME280;10706;49.036;12.112;2023-05-09T11:27:19;97648.72;;;19.62;39.94
21096;BME280;10706;49.036;12.112;2023-05-09T11:29:57;97636.88;;;19.58;42.66
21096;BME280;10706;49.036;12.112;2023-05-09T11:32:30;97639.88;;;19.56;37.68
21096;BME280;10706;49.036;12.112;2023-05-09T11:35:23;97631.88;;;19.84;38.64
21096;BME280;10706;49.036;12.112;2023-05-09T11:38:01;97622.63;;;19.85;36.67
21096;BME280;10706;49.036;12.112;2023-05-09T11:40:28;97619.94;;;19.99;36.07
21096;BME280;10706;49.036;12.112;2023-05-09T11:42:57;97614.53;;;20.13;38.66
21096;BME280;10706;49.036;12.112;2023-05-09T11:45:26;97614.44;;;20.18;40.64
21096;BME280;10706;49.036;12.112;2023-05-09T11:47:53;97602.75;;;20.17;40.95
21096;BME280;10706;49.036;12.112;2023-05-09T11:50:19;97598.66;;;20.48;42.33
21096;BME280;10706;49.036;12.112;2023-05-09T11:52:47;97584.44;;;21.60;37.16
21096;BME280;10706;49.036;12.112;2023-05-09T11:55:18;97579.56;;;22.86;33.39
21096;BME280;10706;49.036;12.112;2023-05-09T11:57:49;97575.59;;;22.83;32.76
21096;BME280;10706;49.036;12.112;2023-05-09T12:00:21;97570.44;;;24.08;33.11
21096;BME280;10706;49.036;12.112;2023-05-09T12:02:48;97567.94;;;23.94;32.36
21096;BME280;10706;49.036;12.112;2023-05-09T12:05:17;97559.25;;;24.60;33.61
21096;BME280;10706;49.036;12.112;2023-05-09T12:07:44;97549.06;;;25.11;29.95
21096;BME280;10706;49.036;12.112;2023-05-09T12:10:17;97540.09;;;26.27;30.32
21096;BME280;10706;49.036;12.112;2023-05-09T12:12:49;97545.53;;;26.51;28.13
21096;BME280;10706;49.036;12.112;2023-05-09T12:15:15;97537.28;;;26.76;26.35
21096;BME280;10706;49.036;12.112;2023-05-09T12:17:43;97539.88;;;26.32;27.59
21096;BME280;10706;49.036;12.112;2023-05-09T12:20:09;97538.59;;;26.05;29.15
21096;BME280;10706;49.036;12.112;2023-05-09T12:22:36;97529.63;;;24.71;27.98
21096;BME280;10706;49.036;12.112;2023-05-09T12:25:08;97529.22;;;25.81;27.85
21096;BME280;10706;49.036;12.112;2023-05-09T12:27:36;97521.72;;;26.27;27.64
21096;BME280;10706;49.036;12.112;2023-05-09T12:30:07;97516.72;;;26.82;25.38
21096;BME280;10706;49.036;12.112;2023-05-09T12:32:36;97508.09;;;26.68;24.43
21096;BME280;10706;49.036;12.112;2023-05-09T12:35:05;97516.13;;;26.36;24.93
21096;BME280;10706;49.036;12.112;2023-05-09T12:37:31;97514.59;;;26.75;25.44
21096;BME280;10706;49.036;12.112;2023-05-09T12:40:11;97506.72;;;27.30;27.86
21096;BME280;10706;49.036;12.112;2023-05-09T12:42:38;97507.03;;;27.13;26.75
21096;BME280;10706;49.036;12.112;2023-05-09T12:45:07;97493.22;;;27.69;25.88
21096;BME280;10706;49.036;12.112;2023-05-09T12:47:33;97485.19;;;28.44;23.88
21096;BME280;10706;49.036;12.112;2023-05-09T12:50:04;97486.53;;;27.67;25.30
21096;BME280;10706;49.036;12.112;2023-05-09T12:52:41;97472.59;;;27.44;26.04
21096;BME280;10706;49.036;12.112;2023-05-09T12:55:12;97475.69;;;28.41;24.05
21096;BME280;10706;49.036;12.112;2023-05-09T12:57:41;97475.16;;;27.84;25.83
21096;BME280;10706;49.036;12.112;2023-05-09T13:00:08;97471.88;;;28.46;26.31
21096;BME280;10706;49.036;12.112;2023-05-09T13:02:39;97471.03;;;28.42;26.88
21096;BME280;10706;49.036;12.112;2023-05-09T13:05:08;97466.47;;;27.34;27.01
21096;BME280;10706;49.036;12.112;2023-05-09T13:07:44;97461.38;;;27.65;28.26
21096;BME280;10706;49.036;12.112;2023-05-09T13:10:19;97458.84;;;26.43;30.32